sensor_id;sensor_type;location;lat;lon;timestamp;temperature;humidity
19279;DHT22;9773;47.062;15.446;2023-04-12T00:01:48;9.70;88.60
19279;DHT22;9773;47.062;15.446;2023-04-12T00:04:14;9.70;88.80
19279;DHT22;9773;47.062;15.446;2023-04-12T00:06:43;9.70;89.10
19279;DHT22;9773;47.062;15.446;2023-04-12T00:09:13;9.70;89.20
19279;DHT22;9773;47.062;15.446;2023-04-12T00:11:42;9.60;89.30
19279;DHT22;9773;47.062;15.446;2023-04-12T00:14:08;9.70;89.50
19279;DHT22;9773;47.062;15.446;2023-04-12T00:16:34;9.60;89.50
19279;DHT22;9773;47.062;15.446;2023-04-12T00:19:01;9.60;89.80
19279;DHT22;9773;47.062;15.446;2023-04-12T00:21:28;9.50;90.00
19279;DHT22;9773;47.062;15.446;2023-04-12T00:23:54;9.50;90.00
19279;DHT22;9773;47.062;15.446;2023-04-12T00:26:21;9.60;89.90
19279;DHT22;9773;47.062;15.446;2023-04-12T00:28:47;9.60;89.90
19279;DHT22;9773;47.062;15.446;2023-04-12T00:31:13;9.50;90.00
19279;DHT22;9773;47.062;15.446;2023-04-12T00:33:39;9.60;90.00
19279;DHT22;9773;47.062;15.446;2023-04-12T00:36:06;9.60;90.20
19279;DHT22;9773;47.062;15.446;2023-04-12T00:38:32;9.60;90.00
19279;DHT22;9773;47.062;15.446;2023-04-12T00:40:58;9.60;90.00
19279;DHT22;9773;47.062;15.446;2023-04-12T00:43:26;9.60;90.00
19279;DHT22;9773;47.062;15.446;2023-04-12T00:45:53;9.60;90.10
19279;DHT22;9773;47.062;15.446;2023-04-12T00:48:22;9.60;89.90
19279;DHT22;9773;47.062;15.446;2023-04-12T00:50:48;9.70;89.80
19279;DHT22;9773;47.062;15.446;2023-04-12T00:53:13;9.70;90.00
19279;DHT22;9773;47.062;15.446;2023-04-12T00:55:44;9.60;90.10
19279;DHT22;9773;47.062;15.446;2023-04-12T00:58:10;9.60;90.20
19279;DHT22;9773;47.062;15.446;2023-04-12T01:00:36;9.50;90.10
19279;DHT22;9773;47.062;15.446;2023-04-12T01:03:05;9.60;90.10
19279;DHT22;9773;47.062;15.446;2023-04-12T01:05:39;9.70;90.30
19279;DHT22;9773;47.062;15.446;2023-04-12T01:11:59;9.60;90.70
19279;DHT22;9773;47.062;15.446;2023-04-12T01:14:13;9.60;90.90
19279;DHT22;9773;47.062;15.446;2023-04-12T01:16:50;9.50;90.90
19279;DHT22;9773;47.062;15.446;2023-04-12T01:28:06;9.60;90.60
19279;DHT22;9773;47.062;15.446;2023-04-12T01:30:33;9.50;90.60
19279;DHT22;9773;47.062;15.446;2023-04-12T01:33:03;9.50;90.60
19279;DHT22;9773;47.062;15.446;2023-04-12T01:35:31;9.50;90.70
19279;DHT22;9773;47.062;15.446;2023-04-12T01:37:58;9.50;90.60
19279;DHT22;9773;47.062;15.446;2023-04-12T01:40:28;9.50;90.50
19279;DHT22;9773;47.062;15.446;2023-04-12T01:43:14;9.50;90.50
19279;DHT22;9773;47.062;15.446;2023-04-12T01:45:40;9.50;90.50
19279;DHT22;9773;47.062;15.446;2023-04-12T01:48:10;9.50;90.60
19279;DHT22;9773;47.062;15.446;2023-04-12T01:51:03;9.60;90.50
19279;DHT22;9773;47.062;15.446;2023-04-12T01:53:38;9.60;90.40
19279;DHT22;9773;47.062;15.446;2023-04-12T01:56:08;9.50;90.30
19279;DHT22;9773;47.062;15.446;2023-04-12T01:58:36;9.50;90.70
19279;DHT22;9773;47.062;15.446;2023-04-12T02:01:03;9.50;90.40
19279;DHT22;9773;47.062;15.446;2023-04-12T02:03:30;9.50;90.50
19279;DHT22;9773;47.062;15.446;2023-04-12T02:05:57;9.40;90.60
19279;DHT22;9773;47.062;15.446;2023-04-12T02:08:24;9.30;90.80
19279;DHT22;9773;47.062;15.446;2023-04-12T02:10:50;9.30;90.90
19279;DHT22;9773;47.062;15.446;2023-04-12T02:13:17;9.30;91.10
19279;DHT22;9773;47.062;15.446;2023-04-12T02:15:43;9.30;91.10
19279;DHT22;9773;47.062;15.446;2023-04-12T02:18:10;9.20;91.10
19279;DHT22;9773;47.062;15.446;2023-04-12T02:20:38;9.20;91.20
19279;DHT22;9773;47.062;15.446;2023-04-12T02:23:05;9.20;91.20
19279;DHT22;9773;47.062;15.446;2023-04-12T02:25:31;9.20;91.10
19279;DHT22;9773;47.062;15.446;2023-04-12T02:27:57;9.30;91.10
19279;DHT22;9773;47.062;15.446;2023-04-12T02:30:23;9.20;91.20
19279;DHT22;9773;47.062;15.446;2023-04-12T02:32:49;9.20;91.10
19279;DHT22;9773;47.062;15.446;2023-04-12T02:35:15;9.10;91.10
19279;DHT22;9773;47.062;15.446;2023-04-12T02:37:43;9.00;91.70
19279;DHT22;9773;47.062;15.446;2023-04-12T02:40:12;8.90;91.90
19279;DHT22;9773;47.062;15.446;2023-04-12T02:42:41;10.00;91.90
19279;DHT22;9773;47.062;15.446;2023-04-12T02:45:07;8.80;92.40
19279;DHT22;9773;47.062;15.446;2023-04-12T02:47:33;8.70;92.40
19279;DHT22;9773;47.062;15.446;2023-04-12T02:50:02;8.60;92.50
19279;DHT22;9773;47.062;15.446;2023-04-12T02:52:28;8.50;92.90
19279;DHT22;9773;47.062;15.446;2023-04-12T02:54:55;8.40;92.90
19279;DHT22;9773;47.062;15.446;2023-04-12T02:57:21;8.40;92.90
19279;DHT22;9773;47.062;15.446;2023-04-12T02:59:50;8.40;93.10
19279;DHT22;9773;47.062;15.446;2023-04-12T03:02:18;8.30;93.10
19279;DHT22;9773;47.062;15.446;2023-04-12T03:04:44;8.30;93.20
19279;DHT22;9773;47.062;15.446;2023-04-12T03:07:12;8.20;93.40
19279;DHT22;9773;47.062;15.446;2023-04-12T03:09:37;8.20;93.60
19279;DHT22;9773;47.062;15.446;2023-04-12T03:12:07;8.20;93.70
19279;DHT22;9773;47.062;15.446;2023-04-12T03:14:33;8.10;93.70
19279;DHT22;9773;47.062;15.446;2023-04-12T03:16:58;8.00;93.70
19279;DHT22;9773;47.062;15.446;2023-04-12T03:19:24;8.00;93.90
19279;DHT22;9773;47.062;15.446;2023-04-12T03:21:50;8.00;94.00
19279;DHT22;9773;47.062;15.446;2023-04-12T03:24:15;7.90;94.10
19279;DHT22;9773;47.062;15.446;2023-04-12T03:26:41;7.90;94.30
19279;DHT22;9773;47.062;15.446;2023-04-12T03:29:08;7.80;94.50
19279;DHT22;9773;47.062;15.446;2023-04-12T03:31:34;7.70;94.50
19279;DHT22;9773;47.062;15.446;2023-04-12T03:34:01;7.70;94.80
19279;DHT22;9773;47.062;15.446;2023-04-12T03:36:27;7.60;94.70
19279;DHT22;9773;47.062;15.446;2023-04-12T03:38:54;7.60;95.10
19279;DHT22;9773;47.062;15.446;2023-04-12T03:41:21;7.50;95.00
19279;DHT22;9773;47.062;15.446;2023-04-12T03:43:48;7.50;95.10
19279;DHT22;9773;47.062;15.446;2023-04-12T03:46:14;7.50;95.30
19279;DHT22;9773;47.062;15.446;2023-04-12T03:48:40;7.50;95.20
19279;DHT22;9773;47.062;15.446;2023-04-12T03:51:07;7.40;95.40
19279;DHT22;9773;47.062;15.446;2023-04-12T03:53:37;7.40;95.50
19279;DHT22;9773;47.062;15.446;2023-04-12T03:56:03;7.40;95.60
19279;DHT22;9773;47.062;15.446;2023-04-12T03:58:29;7.30;95.80
19279;DHT22;9773;47.062;15.446;2023-04-12T04:00:55;7.30;95.80
19279;DHT22;9773;47.062;15.446;2023-04-12T04:03:21;7.20;95.90
19279;DHT22;9773;47.062;15.446;2023-04-12T04:05:51;7.30;95.90
19279;DHT22;9773;47.062;15.446;2023-04-12T04:08:17;7.20;96.00
19279;DHT22;9773;47.062;15.446;2023-04-12T04:10:43;7.10;96.10
19279;DHT22;9773;47.062;15.446;2023-04-12T04:13:09;7.00;96.10
19279;DHT22;9773;47.062;15.446;2023-04-12T04:15:35;6.90;96.10
19279;DHT22;9773;47.062;15.446;2023-04-12T04:18:01;6.90;96.10
19279;DHT22;9773;47.062;15.446;2023-04-12T04:20:29;6.80;96.20
19279;DHT22;9773;47.062;15.446;2023-04-12T04:22:56;6.70;96.20
19279;DHT22;9773;47.062;15.446;2023-04-12T04:25:22;6.60;95.80
19279;DHT22;9773;47.062;15.446;2023-04-12T04:27:57;6.60;96.00
19279;DHT22;9773;47.062;15.446;2023-04-12T04:30:24;6.50;96.00
19279;DHT22;9773;47.062;15.446;2023-04-12T04:32:51;6.40;96.10
19279;DHT22;9773;47.062;15.446;2023-04-12T04:35:16;6.40;96.00
19279;DHT22;9773;47.062;15.446;2023-04-12T04:37:45;6.50;95.90
19279;DHT22;9773;47.062;15.446;2023-04-12T04:40:11;6.60;96.00
19279;DHT22;9773;47.062;15.446;2023-04-12T04:42:37;6.50;96.10
19279;DHT22;9773;47.062;15.446;2023-04-12T04:45:07;6.50;95.90
19279;DHT22;9773;47.062;15.446;2023-04-12T04:47:44;6.50;96.10
19279;DHT22;9773;47.062;15.446;2023-04-12T04:50:10;6.40;96.30
19279;DHT22;9773;47.062;15.446;2023-04-12T04:52:36;6.20;96.30
19279;DHT22;9773;47.062;15.446;2023-04-12T04:55:02;6.30;96.40
19279;DHT22;9773;47.062;15.446;2023-04-12T04:57:29;6.40;96.20
19279;DHT22;9773;47.062;15.446;2023-04-12T04:59:55;6.40;96.30
19279;DHT22;9773;47.062;15.446;2023-04-12T05:02:21;6.40;96.50
19279;DHT22;9773;47.062;15.446;2023-04-12T05:04:47;6.40;96.30
19279;DHT22;9773;47.062;15.446;2023-04-12T05:07:13;6.40;96.50
19279;DHT22;9773;47.062;15.446;2023-04-12T05:09:39;6.40;96.40
19279;DHT22;9773;47.062;15.446;2023-04-12T05:12:04;6.40;96.40
19279;DHT22;9773;47.062;15.446;2023-04-12T05:14:30;6.50;96.30
19279;DHT22;9773;47.062;15.446;2023-04-12T05:16:56;6.60;96.30
19279;DHT22;9773;47.062;15.446;2023-04-12T05:19:22;6.60;96.40
19279;DHT22;9773;47.062;15.446;2023-04-12T05:21:47;6.60;96.20
19279;DHT22;9773;47.062;15.446;2023-04-12T05:24:13;6.50;96.40
19279;DHT22;9773;47.062;15.446;2023-04-12T05:26:39;6.60;96.50
19279;DHT22;9773;47.062;15.446;2023-04-12T05:29:04;6.60;96.20
19279;DHT22;9773;47.062;15.446;2023-04-12T05:31:30;6.70;96.40
19279;DHT22;9773;47.062;15.446;2023-04-12T05:33:56;6.70;96.40
19279;DHT22;9773;47.062;15.446;2023-04-12T05:36:22;6.70;96.70
19279;DHT22;9773;47.062;15.446;2023-04-12T05:38:48;6.80;96.40
19279;DHT22;9773;47.062;15.446;2023-04-12T05:41:13;6.90;96.40
19279;DHT22;9773;47.062;15.446;2023-04-12T05:43:39;7.00;96.30
19279;DHT22;9773;47.062;15.446;2023-04-12T05:46:05;7.10;96.30
19279;DHT22;9773;47.062;15.446;2023-04-12T05:48:32;7.10;96.10
19279;DHT22;9773;47.062;15.446;2023-04-12T05:50:58;7.10;96.10
19279;DHT22;9773;47.062;15.446;2023-04-12T05:53:23;7.10;96.00
19279;DHT22;9773;47.062;15.446;2023-04-12T05:55:49;7.00;96.20
19279;DHT22;9773;47.062;15.446;2023-04-12T05:58:19;7.20;96.10
19279;DHT22;9773;47.062;15.446;2023-04-12T06:00:45;7.20;96.10
19279;DHT22;9773;47.062;15.446;2023-04-12T06:03:11;7.30;96.10
19279;DHT22;9773;47.062;15.446;2023-04-12T06:05:37;7.40;95.80
19279;DHT22;9773;47.062;15.446;2023-04-12T06:08:05;7.50;95.70
19279;DHT22;9773;47.062;15.446;2023-04-12T06:10:31;7.70;95.60
19279;DHT22;9773;47.062;15.446;2023-04-12T06:12:57;7.80;95.60
19279;DHT22;9773;47.062;15.446;2023-04-12T06:15:23;8.00;95.30
19279;DHT22;9773;47.062;15.446;2023-04-12T06:17:48;8.10;95.10
19279;DHT22;9773;47.062;15.446;2023-04-12T06:20:21;8.30;94.90
19279;DHT22;9773;47.062;15.446;2023-04-12T06:22:49;8.40;94.50
19279;DHT22;9773;47.062;15.446;2023-04-12T06:25:15;8.60;94.10
19279;DHT22;9773;47.062;15.446;2023-04-12T06:27:41;8.70;93.70
19279;DHT22;9773;47.062;15.446;2023-04-12T06:30:10;8.80;93.70
19279;DHT22;9773;47.062;15.446;2023-04-12T06:32:36;8.80;93.60
19279;DHT22;9773;47.062;15.446;2023-04-12T06:35:05;8.90;93.70
19279;DHT22;9773;47.062;15.446;2023-04-12T06:37:31;9.10;93.50
19279;DHT22;9773;47.062;15.446;2023-04-12T06:39:57;9.30;93.50
19279;DHT22;9773;47.062;15.446;2023-04-12T06:42:23;9.50;93.20
19279;DHT22;9773;47.062;15.446;2023-04-12T06:44:48;9.70;93.40
19279;DHT22;9773;47.062;15.446;2023-04-12T06:47:14;9.80;92.90
19279;DHT22;9773;47.062;15.446;2023-04-12T06:49:40;10.00;92.40
19279;DHT22;9773;47.062;15.446;2023-04-12T06:52:06;10.20;92.20
19279;DHT22;9773;47.062;15.446;2023-04-12T06:54:35;10.40;92.00
19279;DHT22;9773;47.062;15.446;2023-04-12T06:57:03;10.50;91.60
19279;DHT22;9773;47.062;15.446;2023-04-12T06:59:32;10.60;91.70
19279;DHT22;9773;47.062;15.446;2023-04-12T07:01:58;10.70;91.40
19279;DHT22;9773;47.062;15.446;2023-04-12T07:04:24;10.70;91.40
19279;DHT22;9773;47.062;15.446;2023-04-12T07:06:49;10.60;91.30
19279;DHT22;9773;47.062;15.446;2023-04-12T07:09:15;10.70;91.30
19279;DHT22;9773;47.062;15.446;2023-04-12T07:11:40;10.70;91.30
19279;DHT22;9773;47.062;15.446;2023-04-12T07:14:07;10.80;91.20
19279;DHT22;9773;47.062;15.446;2023-04-12T07:16:33;10.80;91.00
19279;DHT22;9773;47.062;15.446;2023-04-12T07:18:59;10.90;90.80
19279;DHT22;9773;47.062;15.446;2023-04-12T07:21:25;10.90;90.80
19279;DHT22;9773;47.062;15.446;2023-04-12T07:23:52;11.00;90.60
19279;DHT22;9773;47.062;15.446;2023-04-12T07:26:17;11.10;90.30
19279;DHT22;9773;47.062;15.446;2023-04-12T07:28:44;11.20;89.70
19279;DHT22;9773;47.062;15.446;2023-04-12T07:31:09;11.20;89.30
19279;DHT22;9773;47.062;15.446;2023-04-12T07:33:35;11.20;89.10
19279;DHT22;9773;47.062;15.446;2023-04-12T07:36:02;11.20;88.70
19279;DHT22;9773;47.062;15.446;2023-04-12T07:38:29;11.20;88.40
19279;DHT22;9773;47.062;15.446;2023-04-12T07:40:55;11.20;88.60
19279;DHT22;9773;47.062;15.446;2023-04-12T07:43:21;11.00;88.10
19279;DHT22;9773;47.062;15.446;2023-04-12T07:45:48;10.90;87.90
19279;DHT22;9773;47.062;15.446;2023-04-12T07:48:14;11.00;88.20
19279;DHT22;9773;47.062;15.446;2023-04-12T07:50:40;11.10;88.10
19279;DHT22;9773;47.062;15.446;2023-04-12T07:53:22;11.40;87.80
19279;DHT22;9773;47.062;15.446;2023-04-12T07:55:49;11.60;87.80
19279;DHT22;9773;47.062;15.446;2023-04-12T07:58:16;11.90;87.70
19279;DHT22;9773;47.062;15.446;2023-04-12T08:00:42;12.20;87.40
19279;DHT22;9773;47.062;15.446;2023-04-12T08:03:10;12.50;85.40
19279;DHT22;9773;47.062;15.446;2023-04-12T08:05:36;12.60;84.70
19279;DHT22;9773;47.062;15.446;2023-04-12T08:08:04;12.70;85.10
19279;DHT22;9773;47.062;15.446;2023-04-12T08:10:30;12.80;84.60
19279;DHT22;9773;47.062;15.446;2023-04-12T08:12:56;12.90;86.10
19279;DHT22;9773;47.062;15.446;2023-04-12T08:15:22;12.90;86.80
19279;DHT22;9773;47.062;15.446;2023-04-12T08:17:48;13.20;86.00
19279;DHT22;9773;47.062;15.446;2023-04-12T08:20:14;13.30;85.10
19279;DHT22;9773;47.062;15.446;2023-04-12T08:22:44;13.40;85.90
19279;DHT22;9773;47.062;15.446;2023-04-12T08:25:10;13.60;85.50
19279;DHT22;9773;47.062;15.446;2023-04-12T08:27:37;13.70;85.40
19279;DHT22;9773;47.062;15.446;2023-04-12T08:30:04;13.80;86.30
19279;DHT22;9773;47.062;15.446;2023-04-12T08:32:31;13.90;85.70
19279;DHT22;9773;47.062;15.446;2023-04-12T08:34:57;14.00;87.00
19279;DHT22;9773;47.062;15.446;2023-04-12T08:37:23;14.10;85.40
19279;DHT22;9773;47.062;15.446;2023-04-12T08:39:49;14.30;84.10
19279;DHT22;9773;47.062;15.446;2023-04-12T08:42:15;14.40;84.10
19279;DHT22;9773;47.062;15.446;2023-04-12T08:44:42;14.50;84.60
19279;DHT22;9773;47.062;15.446;2023-04-12T08:47:10;14.60;85.00
19279;DHT22;9773;47.062;15.446;2023-04-12T08:49:37;14.60;83.90
19279;DHT22;9773;47.062;15.446;2023-04-12T08:52:07;14.70;83.20
19279;DHT22;9773;47.062;15.446;2023-04-12T08:54:39;14.60;83.30
19279;DHT22;9773;47.062;15.446;2023-04-12T08:57:06;14.60;83.10
19279;DHT22;9773;47.062;15.446;2023-04-12T08:59:38;14.60;82.70
19279;DHT22;9773;47.062;15.446;2023-04-12T09:02:05;14.60;81.60
19279;DHT22;9773;47.062;15.446;2023-04-12T09:04:31;14.70;82.00
19279;DHT22;9773;47.062;15.446;2023-04-12T09:06:57;14.80;81.70
19279;DHT22;9773;47.062;15.446;2023-04-12T09:09:46;15.00;80.30
19279;DHT22;9773;47.062;15.446;2023-04-12T09:12:12;15.10;80.50
19279;DHT22;9773;47.062;15.446;2023-04-12T09:14:39;15.20;80.40
19279;DHT22;9773;47.062;15.446;2023-04-12T09:17:25;15.10;80.60
19279;DHT22;9773;47.062;15.446;2023-04-12T09:19:54;15.30;80.40
19279;DHT22;9773;47.062;15.446;2023-04-12T09:22:37;15.40;80.50
19279;DHT22;9773;47.062;15.446;2023-04-12T09:25:10;15.60;80.70
19279;DHT22;9773;47.062;15.446;2023-04-12T09:27:46;15.70;78.00
19279;DHT22;9773;47.062;15.446;2023-04-12T09:30:13;15.80;78.30
19279;DHT22;9773;47.062;15.446;2023-04-12T09:32:39;15.60;78.10
19279;DHT22;9773;47.062;15.446;2023-04-12T09:35:05;15.50;77.90
19279;DHT22;9773;47.062;15.446;2023-04-12T09:37:32;15.50;77.80
19279;DHT22;9773;47.062;15.446;2023-04-12T09:40:01;15.50;78.10
19279;DHT22;9773;47.062;15.446;2023-04-12T09:42:27;15.40;77.50
19279;DHT22;9773;47.062;15.446;2023-04-12T09:44:53;15.00;78.00
19279;DHT22;9773;47.062;15.446;2023-04-12T09:47:20;15.00;78.90
19279;DHT22;9773;47.062;15.446;2023-04-12T09:49:46;15.00;79.00
19279;DHT22;9773;47.062;15.446;2023-04-12T09:52:13;15.10;79.70
19279;DHT22;9773;47.062;15.446;2023-04-12T09:54:44;15.30;81.30
19279;DHT22;9773;47.062;15.446;2023-04-12T09:57:11;15.60;80.30
19279;DHT22;9773;47.062;15.446;2023-04-12T09:59:39;15.70;79.50
19279;DHT22;9773;47.062;15.446;2023-04-12T10:02:26;16.00;78.80
19279;DHT22;9773;47.062;15.446;2023-04-12T10:04:53;16.20;78.00
19279;DHT22;9773;47.062;15.446;2023-04-12T10:07:19;16.30;76.90
19279;DHT22;9773;47.062;15.446;2023-04-12T10:09:46;16.30;77.50
19279;DHT22;9773;47.062;15.446;2023-04-12T10:12:13;16.50;78.10
19279;DHT22;9773;47.062;15.446;2023-04-12T10:14:41;16.40;79.20
19279;DHT22;9773;47.062;15.446;2023-04-12T10:17:08;16.30;76.80
19279;DHT22;9773;47.062;15.446;2023-04-12T10:19:36;16.00;76.20
19279;DHT22;9773;47.062;15.446;2023-04-12T10:22:03;15.80;77.40
19279;DHT22;9773;47.062;15.446;2023-04-12T10:24:29;15.80;79.20
19279;DHT22;9773;47.062;15.446;2023-04-12T10:26:56;15.80;78.70
19279;DHT22;9773;47.062;15.446;2023-04-12T10:29:28;15.80;78.00
19279;DHT22;9773;47.062;15.446;2023-04-12T10:31:57;15.80;77.60
19279;DHT22;9773;47.062;15.446;2023-04-12T10:34:27;15.80;78.50
19279;DHT22;9773;47.062;15.446;2023-04-12T10:36:57;16.10;78.20
19279;DHT22;9773;47.062;15.446;2023-04-12T10:39:43;16.20;76.60
19279;DHT22;9773;47.062;15.446;2023-04-12T10:42:20;16.30;76.30
19279;DHT22;9773;47.062;15.446;2023-04-12T10:55:41;16.40;75.30
19279;DHT22;9773;47.062;15.446;2023-04-12T10:58:07;16.70;74.60
19279;DHT22;9773;47.062;15.446;2023-04-12T11:03:21;16.80;74.60
19279;DHT22;9773;47.062;15.446;2023-04-12T11:06:00;16.80;75.80
19279;DHT22;9773;47.062;15.446;2023-04-12T11:08:28;16.80;74.80
19279;DHT22;9773;47.062;15.446;2023-04-12T11:10:59;16.90;74.50
19279;DHT22;9773;47.062;15.446;2023-04-12T11:13:27;16.90;73.90
19279;DHT22;9773;47.062;15.446;2023-04-12T11:16:04;17.00;74.60
19279;DHT22;9773;47.062;15.446;2023-04-12T11:18:32;17.10;75.70
19279;DHT22;9773;47.062;15.446;2023-04-12T11:20:59;17.20;74.60
19279;DHT22;9773;47.062;15.446;2023-04-12T11:23:24;17.30;74.10
19279;DHT22;9773;47.062;15.446;2023-04-12T11:25:51;17.20;73.40
19279;DHT22;9773;47.062;15.446;2023-04-12T11:28:20;17.20;75.00
19279;DHT22;9773;47.062;15.446;2023-04-12T11:30:57;17.30;76.00
19279;DHT22;9773;47.062;15.446;2023-04-12T11:35:58;17.50;75.80
19279;DHT22;9773;47.062;15.446;2023-04-12T11:38:23;17.60;73.80
19279;DHT22;9773;47.062;15.446;2023-04-12T11:40:49;17.60;73.50
19279;DHT22;9773;47.062;15.446;2023-04-12T11:43:19;17.70;74.00
19279;DHT22;9773;47.062;15.446;2023-04-12T11:45:45;17.50;73.70
19279;DHT22;9773;47.062;15.446;2023-04-12T11:48:11;17.50;74.70
19279;DHT22;9773;47.062;15.446;2023-04-12T11:50:36;17.70;75.40
19279;DHT22;9773;47.062;15.446;2023-04-12T11:53:14;17.80;75.40
19279;DHT22;9773;47.062;15.446;2023-04-12T11:55:48;17.90;73.80
19279;DHT22;9773;47.062;15.446;2023-04-12T11:58:14;18.10;74.50
19279;DHT22;9773;47.062;15.446;2023-04-12T12:00:41;18.00;73.10
19279;DHT22;9773;47.062;15.446;2023-04-12T12:03:08;18.20;73.50
19279;DHT22;9773;47.062;15.446;2023-04-12T12:05:36;18.20;73.00
19279;DHT22;9773;47.062;15.446;2023-04-12T12:08:03;18.10;73.10
19279;DHT22;9773;47.062;15.446;2023-04-12T12:10:33;17.90;72.90
19279;DHT22;9773;47.062;15.446;2023-04-12T12:13:02;17.90;73.60
19279;DHT22;9773;47.062;15.446;2023-04-12T12:15:30;17.80;72.80
19279;DHT22;9773;47.062;15.446;2023-04-12T12:17:56;17.80;72.80
19279;DHT22;9773;47.062;15.446;2023-04-12T12:20:22;17.70;72.70
19279;DHT22;9773;47.062;15.446;2023-04-12T12:22:49;17.70;73.40
19279;DHT22;9773;47.062;15.446;2023-04-12T12:25:17;17.70;73.70
19279;DHT22;9773;47.062;15.446;2023-04-12T12:27:44;17.80;74.00
19279;DHT22;9773;47.062;15.446;2023-04-12T12:30:16;17.80;72.60
19279;DHT22;9773;47.062;15.446;2023-04-12T12:32:42;17.80;72.60
19279;DHT22;9773;47.062;15.446;2023-04-12T12:35:11;17.80;73.00
19279;DHT22;9773;47.062;15.446;2023-04-12T12:37:48;17.80;71.30
19279;DHT22;9773;47.062;15.446;2023-04-12T12:40:15;17.50;72.50
19279;DHT22;9773;47.062;15.446;2023-04-12T12:42:51;17.30;72.80
19279;DHT22;9773;47.062;15.446;2023-04-12T12:45:20;17.30;72.60
19279;DHT22;9773;47.062;15.446;2023-04-12T12:47:47;17.30;73.00
19279;DHT22;9773;47.062;15.446;2023-04-12T12:50:15;17.30;74.10
19279;DHT22;9773;47.062;15.446;2023-04-12T12:52:43;17.30;74.50
19279;DHT22;9773;47.062;15.446;2023-04-12T12:55:09;17.40;74.80
19279;DHT22;9773;47.062;15.446;2023-04-12T12:57:36;17.40;73.90
19279;DHT22;9773;47.062;15.446;2023-04-12T13:00:02;17.50;73.00
19279;DHT22;9773;47.062;15.446;2023-04-12T13:02:30;17.60;71.70
19279;DHT22;9773;47.062;15.446;2023-04-12T13:04:55;17.50;71.10
19279;DHT22;9773;47.062;15.446;2023-04-12T13:07:21;17.70;72.70
19279;DHT22;9773;47.062;15.446;2023-04-12T13:09:48;17.80;72.00
19279;DHT22;9773;47.062;15.446;2023-04-12T13:12:14;17.90;73.10
19279;DHT22;9773;47.062;15.446;2023-04-12T13:14:40;17.70;71.70
19279;DHT22;9773;47.062;15.446;2023-04-12T13:17:06;17.70;71.10
19279;DHT22;9773;47.062;15.446;2023-04-12T13:19:32;17.70;72.00
19279;DHT22;9773;47.062;15.446;2023-04-12T13:21:58;17.70;71.80
19279;DHT22;9773;47.062;15.446;2023-04-12T13:24:24;17.90;72.20
19279;DHT22;9773;47.062;15.446;2023-04-12T13:26:50;18.00;71.10
19279;DHT22;9773;47.062;15.446;2023-04-12T13:29:16;18.10;71.80
19279;DHT22;9773;47.062;15.446;2023-04-12T13:31:42;18.10;72.00
19279;DHT22;9773;47.062;15.446;2023-04-12T13:34:07;18.20;72.90
19279;DHT22;9773;47.062;15.446;2023-04-12T13:36:33;18.10;73.40
19279;DHT22;9773;47.062;15.446;2023-04-12T13:38:59;17.90;73.00
19279;DHT22;9773;47.062;15.446;2023-04-12T13:41:25;17.80;72.60
19279;DHT22;9773;47.062;15.446;2023-04-12T13:43:51;17.80;73.10
19279;DHT22;9773;47.062;15.446;2023-04-12T13:46:16;17.80;72.60
19279;DHT22;9773;47.062;15.446;2023-04-12T13:48:42;17.90;72.10
19279;DHT22;9773;47.062;15.446;2023-04-12T13:51:08;17.90;71.30
19279;DHT22;9773;47.062;15.446;2023-04-12T13:53:34;17.80;71.40
19279;DHT22;9773;47.062;15.446;2023-04-12T13:56:01;17.90;72.30
19279;DHT22;9773;47.062;15.446;2023-04-12T13:58:27;17.80;72.10
19279;DHT22;9773;47.062;15.446;2023-04-12T14:00:53;17.80;72.30
19279;DHT22;9773;47.062;15.446;2023-04-12T14:03:20;17.80;72.60
19279;DHT22;9773;47.062;15.446;2023-04-12T14:05:46;17.70;71.30
19279;DHT22;9773;47.062;15.446;2023-04-12T14:08:12;17.70;72.30
19279;DHT22;9773;47.062;15.446;2023-04-12T14:10:38;17.60;71.50
19279;DHT22;9773;47.062;15.446;2023-04-12T14:13:05;17.40;71.80
19279;DHT22;9773;47.062;15.446;2023-04-12T14:15:31;17.50;72.00
19279;DHT22;9773;47.062;15.446;2023-04-12T14:17:56;17.40;71.20
19279;DHT22;9773;47.062;15.446;2023-04-12T14:20:22;17.30;71.50
19279;DHT22;9773;47.062;15.446;2023-04-12T14:22:48;17.30;71.90
19279;DHT22;9773;47.062;15.446;2023-04-12T14:25:14;17.30;72.90
19279;DHT22;9773;47.062;15.446;2023-04-12T14:27:40;17.30;72.10
19279;DHT22;9773;47.062;15.446;2023-04-12T14:30:06;17.30;73.00
19279;DHT22;9773;47.062;15.446;2023-04-12T14:32:32;17.20;74.00
19279;DHT22;9773;47.062;15.446;2023-04-12T14:34:58;17.10;74.20
19279;DHT22;9773;47.062;15.446;2023-04-12T14:37:24;17.00;73.00
19279;DHT22;9773;47.062;15.446;2023-04-12T14:39:52;16.90;73.00
19279;DHT22;9773;47.062;15.446;2023-04-12T14:42:18;16.90;72.90
19279;DHT22;9773;47.062;15.446;2023-04-12T14:44:44;16.90;73.70
19279;DHT22;9773;47.062;15.446;2023-04-12T14:47:10;16.90;72.90
19279;DHT22;9773;47.062;15.446;2023-04-12T14:49:36;16.80;73.30
19279;DHT22;9773;47.062;15.446;2023-04-12T14:52:03;16.70;73.80
19279;DHT22;9773;47.062;15.446;2023-04-12T14:54:31;16.60;73.90
19279;DHT22;9773;47.062;15.446;2023-04-12T14:56:56;16.50;73.90
19279;DHT22;9773;47.062;15.446;2023-04-12T14:59:22;16.50;74.60
19279;DHT22;9773;47.062;15.446;2023-04-12T15:01:48;16.50;74.10
19279;DHT22;9773;47.062;15.446;2023-04-12T15:04:14;16.60;73.50
19279;DHT22;9773;47.062;15.446;2023-04-12T15:06:40;16.70;73.30
19279;DHT22;9773;47.062;15.446;2023-04-12T15:09:07;16.70;73.80
19279;DHT22;9773;47.062;15.446;2023-04-12T15:11:34;16.70;74.80
19279;DHT22;9773;47.062;15.446;2023-04-12T15:14:01;16.80;74.80
19279;DHT22;9773;47.062;15.446;2023-04-12T15:16:29;16.80;74.30
19279;DHT22;9773;47.062;15.446;2023-04-12T15:18:55;16.90;74.40
19279;DHT22;9773;47.062;15.446;2023-04-12T15:21:20;16.90;74.50
19279;DHT22;9773;47.062;15.446;2023-04-12T15:23:48;17.00;73.40
19279;DHT22;9773;47.062;15.446;2023-04-12T15:26:14;17.00;73.80
19279;DHT22;9773;47.062;15.446;2023-04-12T15:28:41;17.00;73.20
19279;DHT22;9773;47.062;15.446;2023-04-12T15:31:06;16.90;73.00
19279;DHT22;9773;47.062;15.446;2023-04-12T15:33:33;16.90;73.10
19279;DHT22;9773;47.062;15.446;2023-04-12T15:36:03;16.90;73.30
19279;DHT22;9773;47.062;15.446;2023-04-12T15:38:29;16.80;74.00
19279;DHT22;9773;47.062;15.446;2023-04-12T15:41:00;16.80;74.00
19279;DHT22;9773;47.062;15.446;2023-04-12T15:43:26;16.80;74.60
19279;DHT22;9773;47.062;15.446;2023-04-12T15:45:52;16.80;74.20
19279;DHT22;9773;47.062;15.446;2023-04-12T15:48:23;16.80;74.20
19279;DHT22;9773;47.062;15.446;2023-04-12T15:50:50;16.70;74.00
19279;DHT22;9773;47.062;15.446;2023-04-12T15:53:19;16.60;74.80
19279;DHT22;9773;47.062;15.446;2023-04-12T15:55:46;16.60;74.80
19279;DHT22;9773;47.062;15.446;2023-04-12T15:58:12;16.60;76.30
19279;DHT22;9773;47.062;15.446;2023-04-12T16:00:39;16.50;75.40
19279;DHT22;9773;47.062;15.446;2023-04-12T16:03:05;16.60;75.70
19279;DHT22;9773;47.062;15.446;2023-04-12T16:05:32;16.50;75.30
19279;DHT22;9773;47.062;15.446;2023-04-12T16:07:58;16.50;75.30